createdAt,value
2022-10-30T00:01:09.771Z,55.28
2022-10-30T00:06:11.437Z,67.45
2022-10-30T00:08:38.631Z,68.32
2022-10-30T00:11:11.051Z,67.53
2022-10-30T00:13:42.403Z,59.25
2022-10-30T00:16:09.646Z,57.80
2022-10-30T00:18:38.622Z,57.78
2022-10-30T00:21:13.395Z,56.50
2022-10-30T00:23:53.440Z,48.35
2022-10-30T00:26:25.612Z,46.55
2022-10-30T00:28:57.346Z,43.88
2022-10-30T00:31:27.464Z,45.90
2022-10-30T00:33:55.747Z,55.10
2022-10-30T00:36:23.847Z,47.42
2022-10-30T00:38:55.928Z,51.20
2022-10-30T00:41:25.516Z,42.70
2022-10-30T00:43:52.859Z,41.72
2022-10-30T00:46:38.746Z,41.08
2022-10-30T00:49:16.878Z,39.63
2022-10-30T00:51:52.544Z,40.00
2022-10-30T00:54:23.512Z,38.83
2022-10-30T00:56:54.317Z,37.95
2022-10-30T00:59:29.188Z,36.38
2022-10-30T01:01:57.792Z,36.03
2022-10-30T01:04:30.238Z,37.65
2022-10-30T01:07:06.704Z,34.78
2022-10-30T01:09:34.249Z,34.72
2022-10-30T01:12:01.593Z,36.80
2022-10-30T01:14:33.721Z,34.30
2022-10-30T01:17:16.174Z,33.40
2022-10-30T01:20:10.782Z,34.15
2022-10-30T01:22:44.113Z,35.72
2022-10-30T01:25:27.677Z,32.75
2022-10-30T01:28:26.280Z,33.90
2022-10-30T01:31:13.532Z,34.58
2022-10-30T01:33:53.906Z,31.95
2022-10-30T01:36:51.678Z,32.97
2022-10-30T01:39:26.368Z,34.72
2022-10-30T01:41:56.353Z,31.95
2022-10-30T01:44:30.784Z,31.38
2022-10-30T01:47:22.054Z,32.05
2022-10-30T01:50:00.423Z,33.28
2022-10-30T01:52:33.483Z,31.88
2022-10-30T01:55:29.786Z,30.48
2022-10-30T01:58:06.497Z,31.77
2022-10-30T02:00:43.631Z,32.95
2022-10-30T02:03:14.450Z,30.45
2022-10-30T02:05:49.208Z,32.97
2022-10-30T02:08:22.296Z,32.35
2022-10-30T02:10:53.594Z,32.22
2022-10-30T02:13:33.577Z,31.20
2022-10-30T02:16:00.955Z,32.53
2022-10-30T02:18:30.504Z,32.10
2022-10-30T02:20:58.136Z,32.47
2022-10-30T02:23:25.393Z,31.52
2022-10-30T02:25:55.298Z,30.92
2022-10-30T02:28:22.828Z,32.10
2022-10-30T02:30:50.062Z,32.50
2022-10-30T02:33:19.683Z,31.65
2022-10-30T02:35:47.559Z,31.63
2022-10-30T02:38:15.526Z,31.35
2022-10-30T02:40:42.732Z,30.52
2022-10-30T02:43:14.800Z,31.55
2022-10-30T02:45:44.256Z,32.30
2022-10-30T02:48:12.525Z,31.30
2022-10-30T02:50:42.461Z,32.05
2022-10-30T02:53:09.668Z,31.80
2022-10-30T02:55:36.773Z,30.15
2022-10-30T02:58:04.181Z,30.00
2022-10-30T03:00:31.831Z,30.42
2022-10-30T03:03:01.308Z,30.52
2022-10-30T03:05:32.948Z,30.05
2022-10-30T03:08:00.524Z,29.75
2022-10-30T03:10:28.052Z,31.15
2022-10-30T03:12:55.391Z,30.90
2022-10-30T03:15:22.648Z,28.75
2022-10-30T03:17:52.425Z,30.40
2022-10-30T03:20:20.258Z,30.80
2022-10-30T03:22:47.702Z,30.58
2022-10-30T03:25:15.021Z,30.88
2022-10-30T03:27:42.195Z,31.58
2022-10-30T03:30:10.308Z,30.55
2022-10-30T03:32:37.617Z,28.00
2022-10-30T03:35:05.154Z,31.10
2022-10-30T03:37:35.521Z,29.02
2022-10-30T03:40:05.518Z,29.23
2022-10-30T03:42:40.933Z,29.20
2022-10-30T03:45:12.636Z,30.58
2022-10-30T03:47:45.298Z,29.38
2022-10-30T03:50:12.581Z,29.75
2022-10-30T03:52:44.647Z,30.38
2022-10-30T03:55:15.379Z,26.55
2022-10-30T03:57:45.160Z,29.05
2022-10-30T04:00:17.017Z,28.88
2022-10-30T04:02:56.113Z,29.30
2022-10-30T04:05:25.877Z,30.75
2022-10-30T04:08:01.233Z,30.45
2022-10-30T04:10:36.817Z,30.77
2022-10-30T04:13:11.211Z,30.88
2022-10-30T04:15:43.973Z,30.90
2022-10-30T04:18:16.325Z,29.27
2022-10-30T04:20:48.378Z,30.55
2022-10-30T04:23:18.649Z,29.15
2022-10-30T04:25:46.114Z,30.25
2022-10-30T04:28:13.878Z,33.55
2022-10-30T04:30:43.149Z,29.65
2022-10-30T04:33:12.592Z,29.33
2022-10-30T04:35:42.534Z,30.23
2022-10-30T04:38:19.055Z,30.75
2022-10-30T04:40:51.444Z,30.85
2022-10-30T04:43:19.477Z,28.45
2022-10-30T04:45:50.525Z,29.83
2022-10-30T04:48:19.057Z,28.45
2022-10-30T04:50:48.708Z,28.80
2022-10-30T04:53:23.701Z,28.45
2022-10-30T04:55:57.176Z,27.88
2022-10-30T04:58:24.408Z,28.25
2022-10-30T05:01:03.463Z,29.55
2022-10-30T05:03:36.318Z,30.30
2022-10-30T05:06:21.957Z,26.73
2022-10-30T05:08:50.120Z,27.67
2022-10-30T05:11:32.451Z,30.70
2022-10-30T05:13:59.925Z,29.88
2022-10-30T05:16:27.263Z,29.88
2022-10-30T05:18:55.638Z,30.70
2022-10-30T05:21:22.963Z,30.45
2022-10-30T05:23:54.172Z,32.20
2022-10-30T05:26:23.912Z,29.77
2022-10-30T05:28:57.065Z,31.13
2022-10-30T05:31:24.361Z,29.77
2022-10-30T05:36:46.761Z,26.65
2022-10-30T05:39:15.150Z,31.25
2022-10-30T05:41:45.534Z,30.48
2022-10-30T05:44:12.853Z,30.55
2022-10-30T05:46:42.892Z,29.15
2022-10-30T05:49:24.528Z,29.55
2022-10-30T05:51:54.368Z,30.35
2022-10-30T05:54:24.134Z,30.25
2022-10-30T05:57:00.512Z,28.60
2022-10-30T05:59:30.736Z,29.77
2022-10-30T06:02:00.345Z,30.13
2022-10-30T06:04:30.180Z,29.65
2022-10-30T06:07:01.522Z,29.33
2022-10-30T06:09:29.056Z,29.98
2022-10-30T06:12:03.723Z,28.95
2022-10-30T06:14:48.686Z,29.20
2022-10-30T06:17:16.206Z,29.50
2022-10-30T06:20:01.128Z,30.58
2022-10-30T06:23:02.152Z,31.35
2022-10-30T06:25:48.354Z,31.92
2022-10-30T06:28:34.470Z,31.30
2022-10-30T06:31:02.129Z,31.85
2022-10-30T06:33:31.124Z,32.17
2022-10-30T06:35:59.926Z,32.78
2022-10-30T06:38:27.362Z,31.65
2022-10-30T06:40:55.720Z,29.77
2022-10-30T06:43:34.699Z,32.05
2022-10-30T06:48:46.065Z,30.73
2022-10-30T06:51:15.452Z,32.05
2022-10-30T06:53:43.379Z,32.05
2022-10-30T06:56:43.058Z,30.70
2022-10-30T06:59:23.973Z,31.90
2022-10-30T07:02:00.215Z,30.52
2022-10-30T07:04:38.749Z,32.20
2022-10-30T07:07:08.904Z,32.92
2022-10-30T07:09:36.114Z,33.60
2022-10-30T07:12:06.976Z,32.92
2022-10-30T07:14:40.723Z,34.53
2022-10-30T07:17:15.922Z,33.35
2022-10-30T07:19:49.354Z,33.35
2022-10-30T07:22:17.150Z,34.78
2022-10-30T07:24:48.806Z,32.30
2022-10-30T07:27:30.213Z,33.13
2022-10-30T07:30:07.534Z,33.45
2022-10-30T07:32:57.447Z,32.75
2022-10-30T07:35:46.495Z,32.72
2022-10-30T07:38:28.213Z,32.33
2022-10-30T07:41:03.149Z,34.20
2022-10-30T07:43:48.433Z,34.78
2022-10-30T07:46:42.156Z,35.90
2022-10-30T07:52:01.613Z,34.65
2022-10-30T07:54:28.851Z,33.13
2022-10-30T07:56:59.242Z,32.70
2022-10-30T07:59:35.300Z,33.92
2022-10-30T08:02:21.481Z,32.13
2022-10-30T08:05:10.032Z,31.85
2022-10-30T08:07:57.196Z,29.08
2022-10-30T08:10:24.507Z,28.60
2022-10-30T08:12:51.987Z,26.08
2022-10-30T08:15:19.472Z,26.67
2022-10-30T08:17:50.599Z,26.05
2022-10-30T08:20:20.247Z,25.38
2022-10-30T08:22:53.943Z,26.38
2022-10-30T08:25:27.717Z,25.65
2022-10-30T08:27:57.805Z,26.27
2022-10-30T08:30:34.348Z,26.08
2022-10-30T08:33:04.616Z,27.40
2022-10-30T08:35:59.909Z,27.08
2022-10-30T08:38:28.458Z,27.70
2022-10-30T08:41:13.856Z,26.13
2022-10-30T08:43:45.613Z,28.42
2022-10-30T08:46:12.845Z,29.65
2022-10-30T08:48:41.397Z,28.63
2022-10-30T08:51:08.588Z,30.02
2022-10-30T08:53:44.087Z,29.70
2022-10-30T08:56:14.354Z,28.80
2022-10-30T08:59:03.093Z,29.60
2022-10-30T09:01:32.703Z,30.98
2022-10-30T09:04:21.048Z,31.85
2022-10-30T09:07:23.257Z,29.98
2022-10-30T09:10:19.674Z,30.85
2022-10-30T09:12:57.146Z,31.35
2022-10-30T09:15:28.381Z,30.83
2022-10-30T09:18:01.771Z,31.13
2022-10-30T09:20:30.782Z,30.90
2022-10-30T09:22:59.172Z,28.58
2022-10-30T09:25:29.762Z,32.08
2022-10-30T09:28:09.718Z,31.52
2022-10-30T09:31:01.627Z,29.80
2022-10-30T09:33:31.895Z,30.35
2022-10-30T09:36:22.214Z,32.55
2022-10-30T09:38:49.880Z,31.02
2022-10-30T09:41:51.216Z,29.08
2022-10-30T09:44:48.748Z,29.42
2022-10-30T09:48:01.657Z,27.98
2022-10-30T09:50:43.489Z,27.73
2022-10-30T09:53:30.413Z,28.95
2022-10-30T09:56:09.000Z,30.50
2022-10-30T09:58:50.315Z,29.25
2022-10-30T10:01:26.439Z,31.13
2022-10-30T10:04:15.909Z,27.83
2022-10-30T10:06:46.960Z,28.10
2022-10-30T10:09:31.670Z,27.42
2022-10-30T10:12:35.636Z,29.75
2022-10-30T10:15:15.842Z,29.95
2022-10-30T10:17:46.312Z,31.60
2022-10-30T10:20:36.776Z,29.33
2022-10-30T10:23:43.484Z,29.73
2022-10-30T10:26:29.587Z,31.25
2022-10-30T10:28:59.524Z,29.80
2022-10-30T10:31:35.452Z,30.20
2022-10-30T10:34:21.267Z,27.33
2022-10-30T10:37:17.582Z,27.50
2022-10-30T10:40:13.853Z,25.00
2022-10-30T10:43:01.454Z,25.90
2022-10-30T10:45:54.737Z,25.23
2022-10-30T10:48:48.688Z,26.92
2022-10-30T10:51:31.040Z,25.77
2022-10-30T10:54:21.010Z,24.45
2022-10-30T10:56:51.255Z,23.35
2022-10-30T10:59:18.651Z,23.55
2022-10-30T11:01:58.790Z,22.30
2022-10-30T11:04:35.678Z,24.02
2022-10-30T11:07:24.853Z,24.58
2022-10-30T11:09:54.426Z,22.27
2022-10-30T11:12:33.636Z,22.92
2022-10-30T11:15:25.124Z,23.38
2022-10-30T11:18:00.385Z,23.20
2022-10-30T11:20:55.937Z,22.38
2022-10-30T11:23:43.020Z,23.27
2022-10-30T11:26:22.429Z,23.52
2022-10-30T11:29:01.859Z,24.02
2022-10-30T11:31:35.060Z,22.70
2022-10-30T11:34:19.766Z,23.15
2022-10-30T11:36:52.498Z,22.27
2022-10-30T11:40:00.912Z,21.30
2022-10-30T11:42:28.446Z,22.52
2022-10-30T11:44:57.984Z,20.17
2022-10-30T11:50:20.236Z,20.13
2022-10-30T11:52:51.086Z,19.80
2022-10-30T11:55:28.042Z,21.58
2022-10-30T11:58:01.870Z,20.52
2022-10-30T12:00:34.346Z,20.40
2022-10-30T12:03:02.516Z,18.27
2022-10-30T12:05:38.283Z,18.85
2022-10-30T12:08:08.743Z,19.05
2022-10-30T12:10:47.820Z,19.73
2022-10-30T12:13:20.324Z,19.83
2022-10-30T12:16:17.951Z,16.58
2022-10-30T12:19:04.781Z,18.58
2022-10-30T12:21:38.160Z,17.52
2022-10-30T12:24:13.009Z,17.05
2022-10-30T12:26:48.147Z,18.92
2022-10-30T12:29:22.038Z,18.52
2022-10-30T12:31:56.931Z,18.73
2022-10-30T12:34:30.999Z,20.55
2022-10-30T12:37:23.500Z,19.33
2022-10-30T12:39:51.012Z,19.02
2022-10-30T12:42:23.211Z,18.10
2022-10-30T12:45:21.481Z,18.85
2022-10-30T12:48:11.245Z,19.35
2022-10-30T12:51:06.936Z,20.10
2022-10-30T12:53:40.094Z,18.38
2022-10-30T12:56:18.626Z,18.65
2022-10-30T12:59:12.378Z,19.45
2022-10-30T13:01:52.880Z,18.55
2022-10-30T13:04:24.351Z,19.60
2022-10-30T13:07:14.584Z,18.95
2022-10-30T13:10:09.618Z,17.80
2022-10-30T13:12:44.672Z,17.92
2022-10-30T13:15:25.927Z,19.27
2022-10-30T13:18:13.208Z,19.77
2022-10-30T13:20:40.782Z,18.92
2022-10-30T13:23:15.615Z,18.58
2022-10-30T13:26:13.160Z,19.83
2022-10-30T13:29:03.648Z,20.45
2022-10-30T13:31:44.245Z,21.88
2022-10-30T13:34:30.154Z,18.60
2022-10-30T13:37:08.805Z,19.58
2022-10-30T13:40:04.653Z,19.77
2022-10-30T13:42:51.752Z,19.38
2022-10-30T13:45:58.237Z,19.20
2022-10-30T13:48:39.816Z,20.65
2022-10-30T13:51:45.772Z,21.00
2022-10-30T13:54:22.548Z,22.13
2022-10-30T13:56:53.725Z,19.95
2022-10-30T13:59:31.214Z,20.05
2022-10-30T14:02:25.138Z,21.77
2022-10-30T14:05:13.954Z,19.30
2022-10-30T14:08:05.172Z,20.85
2022-10-30T14:10:47.681Z,20.77
2022-10-30T14:16:06.027Z,20.67
2022-10-30T14:19:00.656Z,22.77
2022-10-30T14:21:58.929Z,20.27
2022-10-30T14:26:58.002Z,22.33
2022-10-30T14:29:37.244Z,21.70
2022-10-30T14:32:17.603Z,19.70
2022-10-30T14:34:51.204Z,20.38
2022-10-30T14:37:38.759Z,21.50
2022-10-30T14:40:34.707Z,21.30
2022-10-30T14:43:20.351Z,20.00
2022-10-30T14:46:01.548Z,21.95
2022-10-30T14:48:45.298Z,21.60
2022-10-30T14:51:23.101Z,25.30
2022-10-30T14:54:17.997Z,23.25
2022-10-30T14:56:51.397Z,27.42
2022-10-30T14:59:33.390Z,24.98
2022-10-30T15:02:03.520Z,24.33
2022-10-30T15:04:58.313Z,26.60
2022-10-30T15:07:37.862Z,25.63
2022-10-30T15:10:16.040Z,27.20
2022-10-30T15:12:51.741Z,27.42
2022-10-30T15:15:21.698Z,25.50
2022-10-30T15:17:58.631Z,26.85
2022-10-30T15:20:29.572Z,26.58
2022-10-30T15:23:19.082Z,26.85
2022-10-30T15:25:49.301Z,41.72
2022-10-30T15:31:07.704Z,53.38
2022-10-30T15:33:38.410Z,37.60
2022-10-30T15:36:06.160Z,30.30
2022-10-30T15:38:33.469Z,36.17
2022-10-30T15:41:03.471Z,41.90
2022-10-30T15:43:37.495Z,36.67
2022-10-30T15:46:10.195Z,35.70
2022-10-30T15:48:45.051Z,36.67
2022-10-30T15:51:24.405Z,38.80
2022-10-30T15:53:57.763Z,39.00
2022-10-30T15:57:06.786Z,42.67
2022-10-30T15:59:35.249Z,45.75
2022-10-30T16:02:21.380Z,41.50
2022-10-30T16:04:49.394Z,41.15
2022-10-30T16:07:23.313Z,42.42
2022-10-30T16:09:58.150Z,42.17
2022-10-30T16:12:33.305Z,40.00
2022-10-30T16:15:07.473Z,38.63
2022-10-30T16:17:35.260Z,38.85
2022-10-30T16:20:09.443Z,37.58
2022-10-30T16:22:39.480Z,37.73
2022-10-30T16:25:12.895Z,37.30
2022-10-30T16:27:44.540Z,36.92
2022-10-30T16:30:16.211Z,37.13
2022-10-30T16:32:55.420Z,34.63
2022-10-30T16:35:24.804Z,38.92
2022-10-30T16:37:52.351Z,112.47
2022-10-30T16:40:27.255Z,88.00
2022-10-30T16:42:59.997Z,36.13
2022-10-30T16:45:34.051Z,35.13
2022-10-30T16:50:52.360Z,31.40
2022-10-30T16:53:24.037Z,31.05
2022-10-30T16:55:52.712Z,33.88
2022-10-30T16:58:24.212Z,31.50
2022-10-30T17:00:56.945Z,33.43
2022-10-30T17:03:27.046Z,33.92
2022-10-30T17:06:05.383Z,34.40
2022-10-30T17:08:40.819Z,33.85
2022-10-30T17:11:17.542Z,33.50
2022-10-30T17:13:59.000Z,31.55
2022-10-30T17:16:37.428Z,34.10
2022-10-30T17:19:30.457Z,36.35
2022-10-30T17:22:00.699Z,37.55
2022-10-30T17:24:41.590Z,35.42
2022-10-30T17:27:28.894Z,34.80
2022-10-30T17:32:44.060Z,29.70
2022-10-30T17:35:18.101Z,34.00
2022-10-30T17:37:47.388Z,35.05
2022-10-30T17:40:21.985Z,32.80
2022-10-30T17:42:52.214Z,35.85
2022-10-30T17:45:19.660Z,36.00
2022-10-30T17:47:49.504Z,133.05
2022-10-30T17:50:16.967Z,36.67
2022-10-30T17:52:44.275Z,40.10
2022-10-30T17:55:28.705Z,33.53
2022-10-30T17:57:55.878Z,38.03
2022-10-30T18:00:27.962Z,39.70
2022-10-30T18:02:57.938Z,35.72
2022-10-30T18:05:30.063Z,40.20
2022-10-30T18:07:59.579Z,34.17
2022-10-30T18:10:27.178Z,35.92
2022-10-30T18:12:54.262Z,36.28
2022-10-30T18:15:31.024Z,33.85
2022-10-30T18:17:58.717Z,37.50
2022-10-30T18:20:29.537Z,37.35
2022-10-30T18:23:03.268Z,35.95
2022-10-30T18:25:34.917Z,35.10
2022-10-30T18:28:02.760Z,36.25
2022-10-30T18:30:30.436Z,35.35
2022-10-30T18:33:00.447Z,33.97
2022-10-30T18:35:37.363Z,34.75
2022-10-30T18:38:08.255Z,35.13
2022-10-30T18:40:38.332Z,35.65
2022-10-30T18:43:07.883Z,36.63
2022-10-30T18:45:40.881Z,38.05
2022-10-30T18:48:08.877Z,38.78
2022-10-30T18:50:43.024Z,37.85
2022-10-30T18:53:14.353Z,38.13
2022-10-30T18:55:42.653Z,41.97
2022-10-30T18:58:14.652Z,46.30
2022-10-30T19:03:30.117Z,42.00
2022-10-30T19:06:00.639Z,38.78
2022-10-30T19:08:30.649Z,39.08
2022-10-30T19:11:00.962Z,37.97
2022-10-30T19:13:28.748Z,38.45
2022-10-30T19:16:00.503Z,39.85
2022-10-30T19:18:30.718Z,35.00
2022-10-30T19:21:06.545Z,37.15
2022-10-30T19:23:39.117Z,36.22
2022-10-30T19:26:09.363Z,36.83
2022-10-30T19:28:41.563Z,36.22
2022-10-30T19:31:13.840Z,36.10
2022-10-30T19:33:42.039Z,36.65
2022-10-30T19:36:29.858Z,36.25
2022-10-30T19:39:08.886Z,37.97
2022-10-30T19:41:41.145Z,39.55
2022-10-30T19:44:08.722Z,40.00
2022-10-30T19:46:38.765Z,40.72
2022-10-30T19:49:18.035Z,42.15
2022-10-30T19:51:51.394Z,39.65
2022-10-30T19:54:20.699Z,36.72
2022-10-30T19:56:52.501Z,38.08
2022-10-30T19:59:24.431Z,37.47
2022-10-30T20:01:51.973Z,35.60
2022-10-30T20:04:22.661Z,35.67
2022-10-30T20:06:52.856Z,37.70
2022-10-30T20:09:21.740Z,39.58
2022-10-30T20:11:51.530Z,42.60
2022-10-30T20:14:19.016Z,40.47
2022-10-30T20:16:48.741Z,43.80
2022-10-30T20:19:29.024Z,45.35
2022-10-30T20:21:59.379Z,53.33
2022-10-30T20:24:31.359Z,52.78
2022-10-30T20:27:01.572Z,45.28
2022-10-30T20:29:31.523Z,47.40
2022-10-30T20:31:58.928Z,38.65
2022-10-30T20:34:26.429Z,39.38
2022-10-30T20:36:55.771Z,37.60
2022-10-30T20:39:26.349Z,39.33
2022-10-30T20:42:00.160Z,39.75
2022-10-30T20:44:30.001Z,39.75
2022-10-30T20:46:57.111Z,47.28
2022-10-30T20:49:26.701Z,43.33
2022-10-30T20:51:56.331Z,47.83
2022-10-30T20:54:26.233Z,47.30
2022-10-30T20:56:55.763Z,51.70
2022-10-30T20:59:23.063Z,44.17
2022-10-30T21:01:53.628Z,40.25
2022-10-30T21:04:23.787Z,40.17
2022-10-30T21:06:50.945Z,42.05
2022-10-30T21:09:20.187Z,43.78
2022-10-30T21:11:49.858Z,42.40
2022-10-30T21:14:17.187Z,41.63
2022-10-30T21:16:46.862Z,50.08
2022-10-30T21:19:18.637Z,44.90
2022-10-30T21:21:46.244Z,47.22
2022-10-30T21:24:15.497Z,50.30
2022-10-30T21:26:43.075Z,48.80
2022-10-30T21:29:15.434Z,50.00
2022-10-30T21:31:43.943Z,44.10
2022-10-30T21:34:14.666Z,44.25
2022-10-30T21:36:44.307Z,49.00
2022-10-30T21:39:11.556Z,43.65
2022-10-30T21:41:44.448Z,43.33
2022-10-30T21:44:17.935Z,43.75
2022-10-30T21:46:45.689Z,43.65
2022-10-30T21:49:17.879Z,43.17
2022-10-30T21:51:49.747Z,42.47
2022-10-30T21:54:18.306Z,44.50
2022-10-30T21:56:46.048Z,40.55
2022-10-30T21:59:13.711Z,43.33
2022-10-30T22:01:42.128Z,229.70
2022-10-30T22:04:11.168Z,75.97
2022-10-30T22:06:43.749Z,62.95
2022-10-30T22:09:13.737Z,37.95
2022-10-30T22:11:45.673Z,39.30
2022-10-30T22:14:19.657Z,39.03
2022-10-30T22:16:48.565Z,40.95
2022-10-30T22:19:18.626Z,45.13
2022-10-30T22:21:45.741Z,48.38
2022-10-30T22:24:16.028Z,46.10
2022-10-30T22:26:43.410Z,42.70
2022-10-30T22:29:11.774Z,40.47
2022-10-30T22:31:41.456Z,42.88
2022-10-30T22:34:08.739Z,43.53
2022-10-30T22:36:35.833Z,45.47
2022-10-30T22:39:10.024Z,44.65
2022-10-30T22:41:38.334Z,40.83
2022-10-30T22:44:12.554Z,41.72
2022-10-30T22:46:40.514Z,47.75
2022-10-30T22:49:10.294Z,69.72
2022-10-30T22:51:39.399Z,102.05
2022-10-30T22:54:09.979Z,68.88
2022-10-30T22:56:37.630Z,91.35
2022-10-30T22:59:12.299Z,157.68
2022-10-30T23:01:42.560Z,159.52
2022-10-30T23:04:11.838Z,83.22
2022-10-30T23:06:39.431Z,59.67
2022-10-30T23:09:11.510Z,79.70
2022-10-30T23:11:38.618Z,97.07
2022-10-30T23:14:06.060Z,68.40
2022-10-30T23:16:33.680Z,56.25
2022-10-30T23:19:01.529Z,47.25
2022-10-30T23:21:30.909Z,42.65
2022-10-30T23:24:06.215Z,39.30
2022-10-30T23:26:36.210Z,39.88
2022-10-30T23:29:04.512Z,39.40
2022-10-30T23:31:35.353Z,39.80
2022-10-30T23:34:08.960Z,38.60
2022-10-30T23:36:38.878Z,40.20
2022-10-30T23:39:11.112Z,39.53
2022-10-30T23:41:38.592Z,36.78
2022-10-30T23:44:12.197Z,37.47
2022-10-30T23:46:39.665Z,36.67
2022-10-30T23:49:07.469Z,35.53
2022-10-30T23:51:36.940Z,36.78
2022-10-30T23:54:07.111Z,35.10
2022-10-30T23:56:36.367Z,38.90
2022-10-30T23:59:06.672Z,35.65
